Archival Weather

Heathrow

London, United Kingdom (EGLL)

Report from: Thursday, September 21, 2023 5:50 AM BST
Current time: Sunday, July 14, 2024 12:04 PM BST

Current weather – Weather history – Daily summaries
Weather forecast

Temperature12.0°C (53.6°F)
Dew point11.0°C (51.8°F)
Winds 3 kts (1.5 m/s, 3.5 mph) Vrb
Winds variableWinds variable from South-Southeast (150°) to South-Southwest (210°)
Visibility6.2 mi. (10 km)
Clouds Sky clear
Altimeter29.41 in.Hg (996 mB)
Relative humidity94 %
Density altitude416 ft. (127 m)
Remarks Fully automated report
Corrected report
No clouds detected
No significant changes expected in the next two hours
Flight conditions Visual Meteorological Conditions
Raw dataCOR EGLL 210450Z AUTO 18003KT 150V210 9999 NCD 12/11 Q0996 NOSIG
An error has occurred. This application may no longer respond until reloaded. Reload 🗙